createdAt,value
2022-10-25T00:09:24.988Z,50.00
2022-10-25T00:14:29.507Z,49.90
2022-10-25T00:19:32.636Z,49.70
2022-10-25T00:24:35.715Z,49.80
2022-10-25T00:29:40.223Z,49.70
2022-10-25T00:34:43.403Z,49.60
2022-10-25T00:39:47.573Z,49.60
2022-10-25T00:44:54.995Z,49.50
2022-10-25T00:50:02.381Z,49.30
2022-10-25T00:55:07.571Z,49.30
2022-10-25T01:00:13.160Z,49.30
2022-10-25T01:05:17.879Z,49.40
2022-10-25T01:10:21.093Z,49.40
2022-10-25T01:15:34.672Z,49.40
2022-10-25T01:21:11.564Z,48.60
2022-10-25T01:26:45.332Z,48.30
2022-10-25T01:31:55.168Z,48.30
2022-10-25T01:37:09.012Z,48.30
2022-10-25T01:42:20.285Z,48.10
2022-10-25T01:47:28.025Z,47.90
2022-10-25T01:52:31.145Z,48.00
2022-10-25T01:57:55.404Z,48.10
2022-10-25T02:03:14.671Z,47.60
2022-10-25T02:08:29.836Z,47.70
2022-10-25T02:13:39.854Z,47.50
2022-10-25T02:18:49.601Z,47.60
2022-10-25T02:23:54.629Z,47.30
2022-10-25T02:28:58.786Z,47.70
2022-10-25T02:34:03.814Z,47.80
2022-10-25T02:39:08.957Z,47.70
2022-10-25T02:44:12.058Z,47.50
2022-10-25T02:49:16.552Z,47.60
2022-10-25T02:54:19.666Z,47.50
2022-10-25T02:59:22.897Z,47.70
2022-10-25T03:04:27.310Z,47.50
2022-10-25T03:09:30.409Z,47.40
2022-10-25T03:14:33.483Z,47.40
2022-10-25T03:19:37.974Z,47.70
2022-10-25T03:24:41.073Z,47.60
2022-10-25T03:29:44.228Z,48.00
2022-10-25T03:34:48.700Z,47.80
2022-10-25T03:39:51.746Z,47.50
2022-10-25T03:44:55.065Z,47.50
2022-10-25T03:49:59.532Z,47.50
2022-10-25T03:55:02.644Z,47.40
2022-10-25T04:00:06.564Z,47.60
2022-10-25T04:05:11.404Z,47.90
2022-10-25T04:10:14.505Z,48.10
2022-10-25T04:15:17.725Z,48.20
2022-10-25T04:20:23.089Z,48.40
2022-10-25T04:25:27.398Z,48.50
2022-10-25T04:30:33.882Z,48.60
2022-10-25T04:35:41.061Z,48.70
2022-10-25T04:40:44.132Z,48.90
2022-10-25T04:45:47.328Z,48.90
2022-10-25T04:50:51.833Z,49.10
2022-10-25T04:55:58.432Z,49.10
2022-10-25T05:01:03.416Z,49.10
2022-10-25T05:06:09.900Z,48.90
2022-10-25T05:11:14.775Z,49.00
2022-10-25T05:16:21.781Z,48.90
2022-10-25T05:21:30.231Z,48.90
2022-10-25T05:26:33.817Z,50.40
2022-10-25T05:31:38.604Z,49.60
2022-10-25T05:36:43.270Z,48.90
2022-10-25T05:41:46.604Z,48.70
2022-10-25T05:46:50.509Z,48.20
2022-10-25T05:51:54.970Z,48.30
2022-10-25T05:56:58.042Z,48.20
2022-10-25T06:02:01.300Z,48.50
2022-10-25T06:07:05.972Z,48.60
2022-10-25T06:12:09.688Z,48.60
2022-10-25T06:17:13.896Z,48.70
2022-10-25T06:22:18.371Z,48.80
2022-10-25T06:27:21.454Z,48.60
2022-10-25T06:32:24.528Z,48.90
2022-10-25T06:37:28.950Z,48.70
2022-10-25T06:42:32.010Z,48.80
2022-10-25T06:47:35.108Z,48.80
2022-10-25T06:52:39.557Z,48.80
2022-10-25T06:57:42.617Z,49.30
2022-10-25T07:02:45.876Z,49.40
2022-10-25T07:07:50.830Z,49.40
2022-10-25T07:12:53.893Z,49.80
2022-10-25T07:17:56.981Z,49.90
2022-10-25T07:23:03.355Z,50.10
2022-10-25T07:28:08.495Z,50.80
2022-10-25T07:33:11.549Z,50.80
2022-10-25T07:38:16.134Z,51.40
2022-10-25T07:43:19.182Z,52.20
2022-10-25T07:48:22.760Z,52.50
2022-10-25T07:53:27.609Z,53.30
2022-10-25T07:58:30.946Z,54.10
2022-10-25T08:03:34.299Z,53.70
2022-10-25T08:08:38.733Z,53.80
2022-10-25T08:13:41.864Z,53.90
2022-10-25T08:18:45.090Z,53.40
2022-10-25T08:23:49.528Z,52.90
2022-10-25T08:28:52.848Z,52.60
2022-10-25T08:33:55.916Z,52.70
2022-10-25T08:39:00.373Z,52.60
2022-10-25T08:44:15.768Z,52.20
2022-10-25T08:49:25.559Z,51.70
2022-10-25T08:54:34.006Z,51.50
2022-10-25T08:59:40.920Z,50.90
2022-10-25T09:04:44.159Z,50.50
2022-10-25T09:09:54.001Z,50.40
2022-10-25T09:15:03.350Z,50.00
2022-10-25T09:20:08.600Z,49.40
2022-10-25T09:25:21.996Z,49.60
2022-10-25T09:30:25.198Z,49.50
2022-10-25T09:35:32.566Z,50.40
2022-10-25T09:40:47.588Z,49.70
2022-10-25T09:45:54.715Z,48.00
2022-10-25T09:51:05.331Z,48.20
2022-10-25T09:56:10.080Z,47.70
2022-10-25T10:01:17.822Z,48.30
2022-10-25T10:06:25.061Z,48.50
2022-10-25T10:11:30.324Z,47.60
2022-10-25T10:16:36.481Z,47.20
2022-10-25T10:21:43.913Z,48.00
2022-10-25T10:26:51.678Z,47.00
2022-10-25T10:31:57.342Z,47.00
2022-10-25T10:37:13.865Z,47.10
2022-10-25T10:42:20.145Z,45.80
2022-10-25T10:47:23.501Z,46.60
2022-10-25T10:52:31.329Z,47.20
2022-10-25T10:57:37.108Z,46.30
2022-10-25T11:02:42.229Z,46.10
2022-10-25T11:07:46.287Z,45.70
2022-10-25T11:13:07.948Z,45.50
2022-10-25T11:18:14.106Z,44.60
2022-10-25T11:23:24.713Z,44.80
2022-10-25T11:28:44.420Z,44.30
2022-10-25T11:34:05.596Z,44.00
2022-10-25T11:39:31.494Z,43.90
2022-10-25T11:45:15.115Z,43.60
2022-10-25T11:50:27.945Z,44.10
2022-10-25T11:55:37.598Z,42.70
2022-10-25T12:00:51.605Z,42.10
2022-10-25T12:06:07.733Z,42.20
2022-10-25T12:11:18.058Z,41.60
2022-10-25T12:16:25.469Z,42.40
2022-10-25T12:21:33.516Z,42.60
2022-10-25T12:26:40.781Z,42.00
2022-10-25T12:31:50.181Z,42.40
2022-10-25T12:36:56.573Z,41.30
2022-10-25T12:42:03.625Z,42.10
2022-10-25T12:47:32.829Z,41.00
2022-10-25T12:52:37.831Z,40.30
2022-10-25T12:57:50.228Z,41.30
2022-10-25T13:03:37.080Z,40.40
2022-10-25T13:08:41.460Z,39.90
2022-10-25T13:13:50.636Z,40.90
2022-10-25T13:19:42.760Z,39.50
2022-10-25T13:24:50.905Z,38.40
2022-10-25T13:30:03.137Z,39.80
2022-10-25T13:35:51.839Z,39.10
2022-10-25T13:41:14.067Z,39.50
2022-10-25T13:46:17.168Z,39.20
2022-10-25T13:51:22.480Z,40.30
2022-10-25T13:56:37.671Z,40.40
2022-10-25T14:01:58.704Z,37.90
2022-10-25T14:07:35.405Z,38.00
2022-10-25T14:12:44.231Z,39.00
2022-10-25T14:17:48.285Z,38.20
2022-10-25T14:22:54.516Z,39.30
2022-10-25T14:28:14.691Z,38.20
2022-10-25T14:33:27.416Z,37.90
2022-10-25T14:38:30.554Z,37.60
2022-10-25T14:43:37.283Z,39.20
2022-10-25T14:48:40.688Z,38.20
2022-10-25T14:53:52.096Z,38.90
2022-10-25T14:58:57.270Z,37.60
2022-10-25T15:04:01.929Z,38.40
2022-10-25T15:14:31.983Z,38.60
2022-10-25T15:20:00.532Z,38.20
2022-10-25T15:25:17.155Z,38.70
2022-10-25T15:30:37.131Z,39.40
2022-10-25T15:35:48.920Z,38.30
2022-10-25T15:40:52.238Z,38.80
2022-10-25T15:45:55.598Z,39.50
2022-10-25T15:51:00.117Z,39.60
2022-10-25T15:56:04.146Z,39.50
2022-10-25T16:01:07.668Z,39.80
2022-10-25T16:06:14.198Z,40.90
2022-10-25T16:11:20.113Z,39.80
2022-10-25T16:16:41.590Z,39.90
2022-10-25T16:21:46.208Z,39.50
2022-10-25T16:26:51.223Z,40.50
2022-10-25T16:31:54.953Z,40.00
2022-10-25T16:36:59.786Z,39.90
2022-10-25T16:42:03.045Z,39.90
2022-10-25T16:47:06.246Z,39.90
2022-10-25T16:52:11.001Z,40.00
2022-10-25T16:57:14.581Z,39.80
2022-10-25T17:02:20.483Z,40.00
2022-10-25T17:07:24.973Z,39.90
2022-10-25T17:12:28.104Z,40.00
2022-10-25T17:17:31.218Z,40.00
2022-10-25T17:22:35.813Z,40.10
2022-10-25T17:27:41.775Z,39.80
2022-10-25T17:32:44.996Z,39.90
2022-10-25T17:37:49.754Z,40.10
2022-10-25T17:42:53.545Z,40.90
2022-10-25T17:48:01.938Z,40.10
2022-10-25T17:53:06.641Z,40.10
2022-10-25T17:58:09.821Z,40.20
2022-10-25T18:03:13.916Z,40.30
2022-10-25T18:08:18.602Z,40.30
2022-10-25T18:13:23.824Z,40.20
2022-10-25T18:18:27.137Z,40.10
2022-10-25T18:23:34.566Z,40.20
2022-10-25T18:28:38.473Z,40.20
2022-10-25T18:33:43.233Z,40.50
2022-10-25T18:38:48.352Z,40.40
2022-10-25T18:43:51.803Z,40.30
2022-10-25T18:48:55.480Z,40.20
2022-10-25T18:54:01.607Z,40.10
2022-10-25T18:59:05.257Z,40.30
2022-10-25T19:04:08.723Z,40.50
2022-10-25T19:09:14.396Z,40.80
2022-10-25T19:14:17.768Z,40.70
2022-10-25T19:19:20.983Z,40.80
2022-10-25T19:24:25.792Z,40.60
2022-10-25T19:29:29.272Z,40.60
2022-10-25T19:34:32.593Z,40.80
2022-10-25T19:39:37.954Z,40.80
2022-10-25T19:44:41.128Z,40.70
2022-10-25T19:49:44.720Z,40.80
2022-10-25T19:54:49.696Z,40.80
2022-10-25T19:59:53.067Z,40.90
2022-10-25T20:04:56.226Z,40.90
2022-10-25T20:10:00.712Z,40.80
2022-10-25T20:15:04.062Z,41.30
2022-10-25T20:20:08.519Z,40.70
2022-10-25T20:25:13.040Z,40.50
2022-10-25T20:30:16.553Z,40.90
2022-10-25T20:35:21.303Z,40.90
2022-10-25T20:40:28.192Z,40.90
2022-10-25T20:45:32.082Z,40.90
2022-10-25T20:50:35.156Z,41.00
2022-10-25T20:55:40.023Z,40.90
2022-10-25T21:00:43.156Z,40.90
2022-10-25T21:05:46.329Z,41.20
2022-10-25T21:10:54.381Z,41.10
2022-10-25T21:15:57.492Z,41.40
2022-10-25T21:21:02.542Z,41.30
2022-10-25T21:26:10.070Z,41.50
2022-10-25T21:31:15.214Z,41.70
2022-10-25T21:36:18.704Z,41.90
2022-10-25T21:41:27.152Z,41.70
2022-10-25T21:46:30.896Z,41.80
2022-10-25T21:51:33.955Z,41.80
2022-10-25T21:56:38.481Z,42.10
2022-10-25T22:01:41.774Z,42.30
2022-10-25T22:06:44.897Z,42.20
2022-10-25T22:11:51.955Z,42.30
2022-10-25T22:16:55.080Z,42.50
2022-10-25T22:21:58.180Z,42.20
2022-10-25T22:27:02.712Z,42.30
2022-10-25T22:32:06.035Z,42.40
2022-10-25T22:37:09.120Z,42.30
2022-10-25T22:42:14.060Z,42.30
2022-10-25T22:47:17.293Z,42.30
2022-10-25T22:52:20.461Z,42.30
2022-10-25T22:57:24.928Z,42.40
2022-10-25T23:02:27.988Z,42.50
2022-10-25T23:07:31.063Z,42.50
2022-10-25T23:12:35.629Z,42.60
2022-10-25T23:17:38.922Z,43.30
2022-10-25T23:22:42.053Z,42.60
2022-10-25T23:27:46.775Z,42.70
2022-10-25T23:32:50.048Z,43.10
2022-10-25T23:37:53.184Z,42.90
2022-10-25T23:42:57.656Z,42.90
2022-10-25T23:48:00.810Z,42.90
2022-10-25T23:53:04.063Z,42.70
2022-10-25T23:58:08.573Z,42.80
